aviador You're here:

WMKL Decoded Metar

PULAU in MALAYSIA
Report Time2018-01-19 18:00:00
UTC Time2018-01-19 19:06:58
Flight Rules Old
WindVRB at 02 kt
Visibility9999 m
Phenomena:N/A
Clouds:Few 025 Hf
Broken 270 Hf
Expected CloudBase > 1,600 ft AGL from Temp-Dew spread
Ceiling27,000 ft
Temp26°C (ISA +11)
Dew Point22°C (79% RH)
QNH1009 hPa
Density Alt1,781 ft
Elevation23 ft
Report Wrong Elevation
Raw Report
METAR WMKL 191800Z VRB02KT 9999 FEW025 BKN270 26/22 Q1009=

Extra information for WMKL:More info

Metar Taf Metar & Taf Last 4 Metars F.Rules Stats Wind Profile Meteogram Temp Stats Airport Information Weather charts Add Link Nearby VenuesMetar ALERT Operation Metar Decoded Social comments